Time;durP1;ratioP1;P1;durP2;ratioP2;P2;SDS_P1;SDS_P2;PMS_P1;PMS_P2;Temp;Humidity;BMP_temperature;BMP_pressure;BME280_temperature;BME280_humidity;BME280_pressure;Samples;Min_cycle;Max_cycle;Signal;HPM_P1;HPM_P2
2022/12/18 00:01:05;;;;;;;3.70;3.40;;;15.60;48.40;16.40;101995.00;;;;5010122;28;20692;-42
2022/12/18 00:03:35;;;;;;;3.70;3.40;;;15.50;48.30;16.40;102000.00;;;;5010347;28;20214;-43
2022/12/18 00:06:01;;;;;;;3.57;3.27;;;15.50;48.50;16.30;101998.00;;;;5011018;28;20179;-40
2022/12/18 00:08:26;;;;;;;3.70;3.13;;;15.50;48.60;16.30;102005.00;;;;5010448;28;20259;-44
2022/12/18 00:10:52;;;;;;;3.23;2.90;;;15.40;48.60;16.30;101997.00;;;;5010550;28;20196;-43
2022/12/18 00:13:18;;;;;;;3.50;3.20;;;15.40;48.60;16.20;101998.00;;;;5010616;28;20211;-43
2022/12/18 00:15:44;;;;;;;3.57;3.27;;;15.40;48.60;16.20;101984.00;;;;5010127;28;20568;-43
2022/12/18 00:18:09;;;;;;;3.23;2.93;;;15.30;48.50;16.20;102011.00;;;;5010399;28;20575;-42
2022/12/18 00:20:38;;;;;;;3.60;3.30;;;15.30;48.50;16.20;102024.00;;;;5010147;28;20223;-42
2022/12/18 00:23:05;;;;;;;4.07;3.20;;;15.30;48.60;16.10;102024.00;;;;5010085;28;20727;-44
2022/12/18 00:25:34;;;;;;;3.40;3.10;;;15.20;48.50;16.10;102018.00;;;;5010362;28;20234;-42
2022/12/18 00:28:00;;;;;;;3.40;3.10;;;15.20;48.60;16.10;102015.00;;;;5009715;28;20663;-44
2022/12/18 00:30:26;;;;;;;3.20;3.00;;;15.20;48.70;16.00;102009.00;;;;5009848;28;20219;-43
2022/12/18 00:32:52;;;;;;;3.10;2.87;;;15.10;48.80;16.00;102010.00;;;;5024101;28;20180;-42
2022/12/18 00:35:18;;;;;;;3.33;3.03;;;15.10;48.90;16.00;102022.00;;;;5009566;28;20248;-42
2022/12/18 00:37:43;;;;;;;3.20;2.90;;;15.00;48.90;15.90;102009.00;;;;5009364;28;20180;-42
2022/12/18 00:40:10;;;;;;;3.53;3.23;;;15.00;48.90;15.90;102007.00;;;;5009178;28;20227;-43
2022/12/18 00:45:20;;;;;;;3.40;3.10;;;15.00;48.90;15.80;102006.00;;;;5009044;28;20170;-43
2022/12/18 00:47:45;;;;;;;3.53;2.97;;;14.90;48.90;15.80;102011.00;;;;5011112;28;20171;-42
2022/12/18 00:50:11;;;;;;;3.27;2.97;;;14.90;49.00;15.80;102000.00;;;;5009136;28;20195;-43
2022/12/18 00:52:40;;;;;;;3.30;3.00;;;14.80;49.00;15.70;102002.00;;;;5014187;28;20183;-44
2022/12/18 00:55:06;;;;;;;3.23;2.97;;;14.80;49.00;15.70;102004.00;;;;5013098;28;20194;-42
2022/12/18 00:57:32;;;;;;;3.60;3.30;;;14.80;49.10;15.70;101999.00;;;;5009374;28;20216;-43
2022/12/18 00:59:58;;;;;;;3.53;3.23;;;14.70;49.10;15.60;101998.00;;;;5007672;28;20223;-43
2022/12/18 01:02:23;;;;;;;3.40;3.10;;;14.70;49.10;15.60;101995.00;;;;5008988;28;20656;-43
2022/12/18 01:04:49;;;;;;;3.40;3.10;;;14.70;49.10;15.60;102011.00;;;;5009222;28;20246;-42
2022/12/18 01:07:15;;;;;;;3.40;3.10;;;14.70;49.20;15.60;102001.00;;;;5013968;28;20192;-42
2022/12/18 01:09:41;;;;;;;3.50;3.20;;;14.60;49.20;15.50;102007.00;;;;5014796;28;20636;-42
2022/12/18 01:12:06;;;;;;;3.40;3.10;;;14.60;49.20;15.50;102011.00;;;;5014773;28;20186;-43
2022/12/18 01:14:32;;;;;;;3.30;3.00;;;14.50;49.20;15.50;101992.00;;;;5011246;28;20181;-42
2022/12/18 01:16:58;;;;;;;3.30;3.00;;;14.50;49.20;15.50;101994.00;;;;5009312;28;20171;-42
2022/12/18 01:19:23;;;;;;;3.30;3.00;;;14.50;49.20;15.40;101995.00;;;;5008617;28;20199;-42
2022/12/18 01:21:49;;;;;;;3.30;3.00;;;14.50;49.20;15.40;102000.00;;;;5008504;28;20171;-42
2022/12/18 01:24:15;;;;;;;3.70;3.30;;;14.40;49.20;15.40;102003.00;;;;5008372;28;20250;-43
2022/12/18 01:26:41;;;;;;;3.47;3.17;;;14.40;49.20;15.30;101994.00;;;;5009010;28;20917;-42
2022/12/18 01:29:06;;;;;;;3.47;3.17;;;14.40;49.20;15.30;102002.00;;;;5008861;28;20168;-44
2022/12/18 01:31:33;;;;;;;3.13;2.93;;;14.30;49.10;15.30;102000.00;;;;5008315;28;20186;-42
2022/12/18 01:34:01;;;;;;;3.03;2.83;;;14.40;49.30;15.30;102005.00;;;;5009102;28;20652;-42
2022/12/18 01:36:32;;;;;;;3.30;3.00;;;14.40;49.30;15.00;102002.00;;;;5008346;28;20251;-42
2022/12/18 01:39:07;;;;;;;3.43;3.13;;;14.30;49.20;15.20;102008.00;;;;5009899;28;20634;-43
2022/12/18 01:42:01;;;;;;;3.33;3.03;;;14.30;49.20;15.20;102016.00;;;;5012324;28;20167;-43
2022/12/18 01:45:02;;;;;;;3.47;3.17;;;14.30;49.20;15.10;102011.00;;;;5012457;28;20220;-42
2022/12/18 01:47:50;;;;;;;3.30;2.97;;;14.20;49.20;15.10;102018.00;;;;5011692;28;20262;-43
2022/12/18 01:50:21;;;;;;;3.20;3.00;;;14.20;49.20;15.00;102005.00;;;;5011481;28;20744;-43
2022/12/18 01:53:06;;;;;;;3.20;2.90;;;14.20;49.20;15.00;102006.00;;;;5011226;28;20243;-42
2022/12/18 01:55:42;;;;;;;3.27;2.97;;;14.10;49.20;15.00;101996.00;;;;5013019;28;20168;-44
2022/12/18 01:58:08;;;;;;;2.90;2.70;;;14.00;49.10;15.00;101988.00;;;;5014182;28;20549;-43
2022/12/18 02:00:33;;;;;;;3.37;3.07;;;14.00;49.20;15.00;101996.00;;;;5014306;28;20200;-47
2022/12/18 02:02:59;;;;;;;3.07;2.83;;;14.00;49.30;15.00;102005.00;;;;5011057;28;20250;-42
2022/12/18 02:05:48;;;;;;;3.23;3.00;;;14.00;49.30;15.00;102003.00;;;;5011985;28;20222;-44
2022/12/18 02:08:16;;;;;;;3.13;2.93;;;14.00;49.40;15.00;102011.00;;;;5010762;28;20594;-42
2022/12/18 02:10:56;;;;;;;3.10;2.90;;;13.90;49.20;14.90;102007.00;;;;5011612;28;20192;-43
2022/12/18 02:13:41;;;;;;;2.93;2.73;;;13.90;49.40;14.60;101990.00;;;;5011181;28;20575;-43
2022/12/18 02:16:36;;;;;;;3.40;3.10;;;13.90;49.40;14.90;102006.00;;;;5011141;28;20175;-43
2022/12/18 02:19:22;;;;;;;3.20;2.90;;;13.90;49.40;14.90;102000.00;;;;5002971;28;20203;-42
2022/12/18 02:22:05;;;;;;;3.20;2.90;;;13.90;49.30;14.80;102000.00;;;;5010749;28;20160;-42
2022/12/18 02:24:42;;;;;;;3.00;2.80;;;13.90;49.50;14.80;101982.00;;;;5010506;28;20195;-42
2022/12/18 02:27:09;;;;;;;3.30;3.00;;;13.80;49.50;14.80;101990.00;;;;5010595;28;20167;-43
2022/12/18 02:29:51;;;;;;;2.93;2.70;;;13.80;49.40;14.80;101981.00;;;;5010035;28;20184;-42
2022/12/18 02:32:28;;;;;;;3.10;2.90;;;13.80;49.50;14.80;102001.00;;;;5010159;28;20163;-43
2022/12/18 02:34:55;;;;;;;2.83;2.63;;;13.70;49.40;14.80;102003.00;;;;5009959;28;20182;-42
2022/12/18 02:37:21;;;;;;;3.23;2.93;;;13.70;49.40;14.80;101989.00;;;;5010039;28;20191;-42
2022/12/18 02:39:48;;;;;;;3.47;3.17;;;13.70;49.40;14.70;101979.00;;;;5010370;28;20650;-43
2022/12/18 02:42:13;;;;;;;3.10;2.80;;;13.70;49.40;14.70;101967.00;;;;5009989;28;20190;-43
2022/12/18 02:44:48;;;;;;;3.40;3.10;;;13.70;49.40;14.70;101977.00;;;;5011457;28;20255;-43
2022/12/18 02:47:16;;;;;;;2.93;2.73;;;13.70;49.40;14.70;101977.00;;;;5011197;28;20182;-43
2022/12/18 02:50:16;;;;;;;3.07;2.87;;;13.60;49.40;14.70;101967.00;;;;5009380;28;20298;-43
2022/12/18 02:53:10;;;;;;;3.30;3.00;;;13.60;49.40;14.60;101973.00;;;;5011316;28;20194;-44
2022/12/18 02:56:03;;;;;;;3.40;3.10;;;13.60;49.50;14.60;101978.00;;;;5009956;28;20152;-44
2022/12/18 02:58:52;;;;;;;3.10;2.80;;;13.50;49.40;14.60;101896.00;;;;5008615;28;20172;-42
2022/12/18 03:01:51;;;;;;;3.17;2.87;;;13.60;49.50;14.60;101967.00;;;;5010265;28;20255;-42
2022/12/18 03:04:28;;;;;;;2.97;2.77;;;13.50;49.40;14.50;101974.00;;;;5009833;28;20268;-42
2022/12/18 03:07:02;;;;;;;3.20;2.90;;;13.50;49.40;14.50;101978.00;;;;5010002;28;20203;-44
2022/12/18 03:09:32;;;;;;;3.00;2.80;;;13.40;49.40;14.50;101978.00;;;;5009793;28;20195;-42
2022/12/18 03:12:24;;;;;;;3.10;2.80;;;13.50;49.60;14.50;101967.00;;;;5009563;28;20175;-42
2022/12/18 03:15:15;;;;;;;3.20;2.90;;;13.40;49.50;14.50;101966.00;;;;5009388;28;20160;-43
2022/12/18 03:17:45;;;;;;;3.20;2.90;;;13.40;49.50;14.50;101942.00;;;;4997200;28;20548;-43
2022/12/18 03:20:15;;;;;;;3.40;3.10;;;13.40;49.50;14.40;101962.00;;;;5009628;28;20195;-42
2022/12/18 03:22:41;;;;;;;3.20;2.90;;;13.40;49.60;14.40;101960.00;;;;5009252;28;20188;-44
2022/12/18 03:25:10;;;;;;;2.90;2.70;;;13.40;49.60;14.40;101954.00;;;;5009281;28;20576;-42
2022/12/18 03:27:37;;;;;;;2.90;2.70;;;13.30;49.50;14.40;101955.00;;;;5011234;28;20168;-42
2022/12/18 03:30:12;;;;;;;2.83;2.63;;;13.30;49.50;14.40;101954.00;;;;5015731;28;20797;-42
2022/12/18 03:33:17;;;;;;;3.30;3.00;;;13.30;49.50;14.40;101948.00;;;;4995067;28;20194;-42
2022/12/18 03:35:43;;;;;;;2.97;2.77;;;13.20;49.40;14.30;101949.00;;;;5009883;28;20566;-43
2022/12/18 03:38:09;;;;;;;2.90;2.70;;;13.30;49.50;14.30;101950.00;;;;5009412;28;20172;-43
2022/12/18 03:41:03;;;;;;;2.80;2.60;;;13.20;49.40;14.30;101947.00;;;;5009510;28;20215;-44
2022/12/18 03:43:55;;;;;;;3.00;2.80;;;13.20;49.40;14.30;101954.00;;;;5010239;28;20483;-43
2022/12/18 03:46:37;;;;;;;3.40;3.10;;;13.20;49.30;14.30;101939.00;;;;5008998;28;20160;-44
2022/12/18 03:49:35;;;;;;;2.90;2.70;;;13.20;49.30;14.20;101951.00;;;;5008642;28;20170;-42
2022/12/18 03:52:10;;;;;;;2.90;2.70;;;13.20;49.30;14.20;101965.00;;;;5007298;28;20627;-42
2022/12/18 03:54:36;;;;;;;2.80;2.60;;;13.10;49.20;14.20;101953.00;;;;4992645;28;20240;-42
2022/12/18 03:57:09;;;;;;;3.00;2.80;;;13.10;49.20;14.20;101924.00;;;;5008748;28;20172;-41
2022/12/18 03:59:35;;;;;;;3.07;2.77;;;13.10;49.30;14.20;101919.00;;;;5008287;28;20219;-42
2022/12/18 04:02:01;;;;;;;2.93;2.73;;;13.10;49.30;14.20;101936.00;;;;5006084;28;20214;-42
2022/12/18 04:04:27;;;;;;;3.17;2.90;;;13.10;49.30;14.20;101933.00;;;;5008223;28;20275;-43
2022/12/18 04:06:53;;;;;;;2.90;2.70;;;13.10;49.40;14.20;101935.00;;;;5008384;28;20193;-43
2022/12/18 04:09:19;;;;;;;3.00;2.70;;;13.10;49.40;14.10;101922.00;;;;5010100;28;20247;-42
2022/12/18 04:11:46;;;;;;;2.87;2.67;;;13.00;49.30;14.10;101890.00;;;;5008384;28;20183;-44
2022/12/18 04:14:11;;;;;;;2.80;2.60;;;13.00;49.40;14.10;101935.00;;;;5008247;28;20176;-42
2022/12/18 04:16:37;;;;;;;3.00;2.80;;;12.90;49.40;14.10;101930.00;;;;5009476;28;20179;-42
2022/12/18 04:19:03;;;;;;;3.10;2.90;;;13.00;49.40;13.80;101927.00;;;;5009715;28;20221;-42
2022/12/18 04:21:29;;;;;;;2.90;2.70;;;12.90;49.30;14.10;101923.00;;;;5008963;28;20167;-41
2022/12/18 04:23:55;;;;;;;3.20;2.90;;;12.90;49.30;14.00;101938.00;;;;5027556;28;20202;-42
2022/12/18 04:26:21;;;;;;;3.10;2.90;;;12.90;49.40;14.00;101925.00;;;;5023766;28;20180;-41
2022/12/18 04:28:46;;;;;;;2.70;2.50;;;12.90;49.50;14.00;101939.00;;;;4990122;28;20168;-42
2022/12/18 04:31:12;;;;;;;3.50;2.63;;;12.90;49.90;14.00;101934.00;;;;4989675;28;20223;-43
2022/12/18 04:33:38;;;;;;;3.57;2.83;;;12.90;49.90;14.00;101941.00;;;;4989949;28;20196;-42
2022/12/18 04:36:04;;;;;;;4.37;2.50;;;12.90;49.60;13.90;101939.00;;;;4989562;28;20182;-42
2022/12/18 04:38:30;;;;;;;2.93;2.73;;;12.90;49.60;13.90;101938.00;;;;4989705;28;20176;-42
2022/12/18 04:40:55;;;;;;;3.97;2.67;;;12.80;49.50;13.90;101927.00;;;;4988273;28;20262;-42
2022/12/18 04:43:21;;;;;;;3.40;2.70;;;12.90;50.20;13.90;101928.00;;;;4989251;28;20203;-41
2022/12/18 04:45:47;;;;;;;6.33;3.00;;;12.80;50.00;13.90;101934.00;;;;4989350;28;20179;-42
2022/12/18 04:48:12;;;;;;;2.77;2.50;;;12.80;50.00;13.90;101932.00;;;;4989465;28;20172;-43
2022/12/18 04:50:38;;;;;;;4.10;2.57;;;12.80;50.10;13.90;101925.00;;;;4988949;28;20188;-42
2022/12/18 04:53:04;;;;;;;5.00;2.80;;;12.80;50.10;13.80;101935.00;;;;4987624;28;20223;-42
2022/12/18 04:55:30;;;;;;;2.90;2.60;;;12.80;50.10;13.80;101932.00;;;;4989230;28;20262;-42
2022/12/18 04:57:55;;;;;;;5.77;3.00;;;12.80;50.10;13.80;101825.00;;;;4989300;28;20168;-42
2022/12/18 05:00:21;;;;;;;3.07;2.73;;;12.70;50.00;13.80;101923.00;;;;4989091;28;20212;-42
2022/12/18 05:02:47;;;;;;;3.17;2.67;;;12.70;49.90;13.70;101916.00;;;;4990312;28;20203;-42
2022/12/18 05:05:13;;;;;;;3.10;2.80;;;12.70;49.60;13.70;101906.00;;;;5009486;28;20172;-43
2022/12/18 05:07:38;;;;;;;3.80;2.93;;;12.60;49.40;13.70;101924.00;;;;5010184;28;20198;-43
2022/12/18 05:10:08;;;;;;;2.97;2.77;;;12.50;49.30;13.70;101920.00;;;;5008704;28;20258;-42
2022/12/18 05:12:33;;;;;;;2.90;2.70;;;12.60;49.20;13.60;101901.00;;;;5008985;28;20197;-42
2022/12/18 05:14:59;;;;;;;4.53;3.10;;;12.50;49.10;13.60;101918.00;;;;5011704;28;20636;-43
2022/12/18 05:17:25;;;;;;;3.23;2.93;;;12.50;49.00;13.60;101817.00;;;;5012905;28;20195;-43
2022/12/18 05:19:51;;;;;;;3.30;3.00;;;12.40;48.80;13.50;101918.00;;;;5012422;28;20191;-42
2022/12/18 05:22:16;;;;;;;3.20;2.90;;;12.40;48.70;13.50;101917.00;;;;5012686;28;20164;-42
2022/12/18 05:24:42;;;;;;;3.00;2.80;;;12.40;49.30;13.50;101914.00;;;;5012346;28;20573;-42
2022/12/18 05:27:08;;;;;;;3.17;2.87;;;12.40;48.50;13.50;101907.00;;;;5011072;28;20168;-43
2022/12/18 05:29:33;;;;;;;3.47;3.10;;;12.40;48.30;13.50;101907.00;;;;5016358;28;20187;-43
2022/12/18 05:31:59;;;;;;;3.70;3.30;;;12.30;48.30;13.40;101911.00;;;;5014579;28;20258;-42
2022/12/18 05:34:25;;;;;;;4.33;3.00;;;12.40;48.30;13.20;101821.00;;;;5017828;28;20603;-43
2022/12/18 05:36:50;;;;;;;3.30;3.00;;;12.30;48.20;13.40;101911.00;;;;5013903;28;20625;-42
2022/12/18 05:39:16;;;;;;;5.73;3.17;;;12.30;48.20;13.40;101895.00;;;;5011933;28;20183;-41
2022/12/18 05:41:42;;;;;;;3.63;3.23;;;12.30;48.30;13.40;101917.00;;;;5011402;28;20254;-43
2022/12/18 05:44:08;;;;;;;4.13;2.97;;;12.30;48.30;13.40;101924.00;;;;5012144;28;20207;-42
2022/12/18 05:46:33;;;;;;;3.30;3.00;;;12.30;48.30;13.40;101920.00;;;;5012096;28;20164;-41
2022/12/18 05:49:00;;;;;;;3.83;3.40;;;12.30;48.00;13.40;101926.00;;;;5012005;28;20167;-43
2022/12/18 05:51:26;;;;;;;3.63;3.20;;;12.40;47.80;13.40;101919.00;;;;5012586;28;20203;-43
2022/12/18 05:53:52;;;;;;;4.87;3.50;;;12.50;47.60;13.40;101929.00;;;;5011537;28;20551;-42
2022/12/18 05:56:20;;;;;;;13.27;4.13;;;12.60;47.30;13.40;101923.00;;;;5012684;28;20168;-41
2022/12/18 05:58:46;;;;;;;9.77;4.00;;;12.70;47.10;13.50;101935.00;;;;5012411;28;20238;-41
2022/12/18 06:01:15;;;;;;;8.53;4.20;;;12.80;47.00;13.50;101949.00;;;;5011856;28;20231;-43
2022/12/18 06:03:40;;;;;;;7.93;3.40;;;12.90;47.00;13.60;101946.00;;;;5015260;28;20799;-42
2022/12/18 06:06:22;;;;;;;9.77;3.53;;;12.90;47.10;13.60;101959.00;;;;5021706;28;20175;-42
2022/12/18 06:08:47;;;;;;;7.30;3.23;;;12.90;47.30;13.60;101959.00;;;;5014090;28;20544;-41
2022/12/18 06:11:16;;;;;;;4.60;3.50;;;13.00;47.40;13.60;101962.00;;;;5013014;28;20187;-41
2022/12/18 06:13:42;;;;;;;8.07;3.57;;;13.00;47.40;13.70;101967.00;;;;5013378;28;20172;-42
2022/12/18 06:16:08;;;;;;;5.77;3.30;;;13.00;47.70;13.40;101971.00;;;;5012982;28;20180;-41
2022/12/18 06:18:33;;;;;;;10.20;3.97;;;12.90;47.50;13.70;101968.00;;;;5012235;28;20245;-41
2022/12/18 06:20:59;;;;;;;5.17;3.33;;;12.90;47.50;13.70;101972.00;;;;5013214;28;20680;-41
2022/12/18 06:23:25;;;;;;;8.20;3.20;;;12.90;47.70;13.70;101979.00;;;;5012827;28;20211;-42
2022/12/18 06:25:51;;;;;;;5.87;3.00;;;12.90;48.00;13.70;101973.00;;;;5011449;28;20186;-42
2022/12/18 06:28:17;;;;;;;4.07;3.30;;;12.90;47.90;13.70;101988.00;;;;5002000;28;20308;-42
2022/12/18 06:30:47;;;;;;;5.13;3.23;;;13.00;48.00;13.70;101987.00;;;;4991593;28;20196;-44
2022/12/18 06:33:14;;;;;;;4.23;3.10;;;13.00;48.00;13.70;101981.00;;;;4992795;28;20769;-41
2022/12/18 06:35:40;;;;;;;6.80;2.93;;;13.10;47.80;13.80;101988.00;;;;4992876;28;20223;-41
2022/12/18 06:38:05;;;;;;;4.63;2.80;;;13.20;47.70;13.80;101984.00;;;;4991369;28;20207;-42
2022/12/18 06:40:31;;;;;;;3.53;3.07;;;13.30;47.60;13.90;101969.00;;;;4992898;28;20207;-42
2022/12/18 06:42:57;;;;;;;4.97;2.73;;;13.50;47.40;14.00;101967.00;;;;4992382;28;20247;-42
2022/12/18 06:45:24;;;;;;;4.10;3.00;;;13.60;47.10;14.00;101958.00;;;;4992448;28;20645;-42
2022/12/18 06:47:50;;;;;;;4.30;2.83;;;13.70;47.10;14.10;101947.00;;;;4992766;28;20333;-42
2022/12/18 06:50:15;;;;;;;4.13;3.00;;;13.80;46.90;14.20;101951.00;;;;4990991;28;20820;-42
2022/12/18 06:52:42;;;;;;;3.27;2.97;;;14.00;46.80;14.30;101954.00;;;;4992957;28;20204;-43
2022/12/18 06:55:08;;;;;;;8.07;3.00;;;14.10;46.70;14.40;101947.00;;;;4991447;28;20178;-42
2022/12/18 06:57:34;;;;;;;3.03;2.73;;;14.30;46.50;14.50;101943.00;;;;4992246;28;20668;-42
2022/12/18 06:59:59;;;;;;;3.53;2.97;;;14.50;46.30;14.70;101943.00;;;;4992553;28;20192;-41
2022/12/18 07:02:25;;;;;;;3.60;3.00;;;14.60;46.30;14.80;101943.00;;;;4992153;28;20180;-42
2022/12/18 07:04:51;;;;;;;4.77;2.97;;;14.70;46.00;14.90;101952.00;;;;4992957;28;20231;-42
2022/12/18 07:07:17;;;;;;;4.13;2.70;;;14.80;46.00;15.00;101949.00;;;;4992577;28;20172;-42
2022/12/18 07:09:42;;;;;;;3.97;2.90;;;14.90;46.00;15.10;101947.00;;;;4992088;28;20200;-42
2022/12/18 07:12:08;;;;;;;3.27;2.80;;;15.00;46.10;15.20;101943.00;;;;4991885;28;20179;-42
2022/12/18 07:14:34;;;;;;;2.87;2.63;;;15.20;46.20;15.30;101940.00;;;;4992429;28;20238;-42
2022/12/18 07:17:00;;;;;;;2.83;2.50;;;15.30;45.90;15.40;101946.00;;;;4992258;28;20177;-41
2022/12/18 07:19:25;;;;;;;3.57;2.80;;;15.40;45.80;15.50;101934.00;;;;4991770;28;20234;-44
2022/12/18 07:21:51;;;;;;;3.53;2.60;;;15.40;45.70;15.60;101934.00;;;;4991594;28;20207;-42
2022/12/18 07:24:17;;;;;;;3.33;2.80;;;15.60;45.70;15.70;101936.00;;;;4992250;28;20247;-43
2022/12/18 07:26:45;;;;;;;3.03;2.63;;;15.60;45.70;15.70;101958.00;;;;4992200;28;20172;-41
2022/12/18 07:29:11;;;;;;;2.87;2.67;;;15.70;45.70;15.80;101934.00;;;;5005447;28;20178;-41
2022/12/18 07:31:37;;;;;;;2.70;2.50;;;15.70;45.60;15.90;101941.00;;;;5010570;28;20641;-42
2022/12/18 07:34:02;;;;;;;3.47;2.70;;;15.80;45.60;15.90;101934.00;;;;5011618;28;20178;-44
2022/12/18 07:36:28;;;;;;;2.97;2.70;;;15.90;45.60;16.00;101937.00;;;;5009362;28;20184;-43
2022/12/18 07:38:54;;;;;;;3.00;2.70;;;15.90;45.60;16.10;101941.00;;;;5011202;28;20167;-42
2022/12/18 07:41:20;;;;;;;3.77;3.00;;;16.00;45.60;16.10;101928.00;;;;5011554;28;20672;-42
2022/12/18 07:43:45;;;;;;;3.07;2.47;;;16.00;45.50;16.20;101928.00;;;;5010885;28;20231;-42
2022/12/18 07:46:13;;;;;;;2.90;2.60;;;16.10;45.60;16.20;101916.00;;;;5011562;28;20735;-43
2022/12/18 07:48:40;;;;;;;3.00;2.70;;;16.10;45.50;16.30;101911.00;;;;5011327;28;20254;-42
2022/12/18 07:51:06;;;;;;;3.77;2.70;;;16.10;45.60;16.30;101912.00;;;;5009582;28;20262;-42
2022/12/18 07:53:32;;;;;;;2.90;2.60;;;16.10;45.80;16.40;101925.00;;;;5011098;28;20191;-42
2022/12/18 07:56:05;;;;;;;2.50;2.30;;;16.20;45.80;16.30;101921.00;;;;5011211;28;20258;-43
2022/12/18 07:58:31;;;;;;;4.30;2.67;;;16.20;45.80;16.40;101934.00;;;;5011293;28;20234;-43
2022/12/18 08:01:07;;;;;;;2.80;2.60;;;16.20;45.80;16.40;101926.00;;;;5009562;28;20187;-43
2022/12/18 08:03:33;;;;;;;2.93;2.40;;;16.20;45.80;16.50;101924.00;;;;5010791;28;20658;-42
2022/12/18 08:06:04;;;;;;;2.80;2.60;;;16.20;45.80;16.50;101928.00;;;;5011074;28;20199;-43
2022/12/18 08:08:29;;;;;;;2.80;2.60;;;16.30;45.90;16.50;101924.00;;;;5010817;28;20167;-43
2022/12/18 08:10:55;;;;;;;2.97;2.50;;;16.20;46.20;16.50;101920.00;;;;5010914;28;20187;-42
2022/12/18 08:13:21;;;;;;;3.10;2.80;;;16.20;45.80;16.60;101924.00;;;;5011009;28;20171;-43
2022/12/18 08:15:58;;;;;;;2.80;2.50;;;16.30;45.90;16.60;101917.00;;;;5010903;28;20171;-43
2022/12/18 08:18:24;;;;;;;3.13;2.73;;;16.30;45.90;16.60;101906.00;;;;5009115;28;20194;-43
2022/12/18 08:20:50;;;;;;;2.90;2.60;;;16.30;46.00;16.60;101895.00;;;;5010839;28;20204;-41
2022/12/18 08:23:15;;;;;;;2.90;2.60;;;16.30;46.00;16.60;101897.00;;;;5010539;28;20200;-42
2022/12/18 08:25:42;;;;;;;2.80;2.50;;;16.30;46.10;16.60;101893.00;;;;5010815;28;20199;-43
2022/12/18 08:28:08;;;;;;;2.73;2.53;;;16.30;46.00;16.60;101895.00;;;;5010275;28;20232;-42
2022/12/18 08:30:34;;;;;;;2.60;2.40;;;16.30;46.00;16.60;101880.00;;;;5010897;28;20183;-42
2022/12/18 08:32:59;;;;;;;2.67;2.47;;;16.30;46.00;16.70;101869.00;;;;5007608;28;20191;-42
2022/12/18 08:35:25;;;;;;;2.60;2.40;;;16.30;46.00;16.70;101869.00;;;;5010766;28;20176;-43
2022/12/18 08:37:51;;;;;;;2.70;2.50;;;16.30;46.10;16.70;101851.00;;;;5010073;28;20181;-44
2022/12/18 08:40:16;;;;;;;3.03;2.60;;;16.30;46.20;16.70;101852.00;;;;5009599;28;20203;-42
2022/12/18 08:45:27;;;;;;;3.47;2.57;;;16.30;46.10;16.70;101856.00;;;;5017331;28;20800;-44
2022/12/18 08:47:52;;;;;;;3.03;2.67;;;16.30;46.00;16.70;101860.00;;;;5009157;28;20237;-43
2022/12/18 08:50:19;;;;;;;3.17;2.87;;;16.30;46.20;16.70;101856.00;;;;5000683;28;20199;-43
2022/12/18 08:52:45;;;;;;;2.67;2.47;;;16.30;46.20;16.70;101875.00;;;;4998984;28;20171;-42
2022/12/18 08:55:10;;;;;;;2.60;2.40;;;16.30;46.20;16.70;101879.00;;;;4999348;28;20251;-42
2022/12/18 08:57:36;;;;;;;2.90;2.60;;;16.40;46.20;16.80;101862.00;;;;4907487;28;20211;-43
2022/12/18 09:00:03;;;;;;;2.80;2.60;;;16.40;46.10;16.80;101856.00;;;;5004993;28;20274;-42
2022/12/18 09:02:29;;;;;;;2.63;2.43;;;16.40;46.10;16.80;101875.00;;;;5002169;28;20195;-42
2022/12/18 09:04:55;;;;;;;2.80;2.60;;;16.40;46.80;16.80;101873.00;;;;4992642;28;20160;-42
2022/12/18 09:07:20;;;;;;;2.70;2.50;;;16.40;46.30;16.80;101877.00;;;;5009730;28;20172;-44
2022/12/18 09:09:46;;;;;;;2.70;2.50;;;16.40;46.30;16.80;101874.00;;;;5009458;28;20227;-44
2022/12/18 09:12:12;;;;;;;3.00;2.60;;;16.40;46.30;16.80;101865.00;;;;5009473;28;20255;-43
2022/12/18 09:14:38;;;;;;;2.70;2.50;;;16.50;46.40;16.80;101861.00;;;;5010974;28;20172;-42
2022/12/18 09:17:03;;;;;;;2.80;2.60;;;16.50;46.30;16.90;101840.00;;;;5009956;28;20179;-43
2022/12/18 09:19:29;;;;;;;3.17;2.50;;;16.50;46.60;16.90;101843.00;;;;5010013;28;20787;-42
2022/12/18 09:21:55;;;;;;;2.80;2.60;;;16.50;46.60;16.90;101847.00;;;;5009824;28;20178;-42
2022/12/18 09:24:25;;;;;;;2.77;2.57;;;16.50;46.60;16.90;101851.00;;;;5009647;28;20203;-42
2022/12/18 09:26:54;;;;;;;2.70;2.50;;;16.50;46.70;16.90;101831.00;;;;5009833;28;20191;-42
2022/12/18 09:29:20;;;;;;;2.70;2.50;;;16.50;47.40;16.90;101841.00;;;;5010181;28;20609;-42
2022/12/18 09:31:46;;;;;;;3.50;2.80;;;16.50;46.70;16.90;101838.00;;;;5008803;28;20255;-42
2022/12/18 09:34:12;;;;;;;2.60;2.40;;;16.50;46.60;16.90;101840.00;;;;5007503;28;20215;-42
2022/12/18 09:36:37;;;;;;;3.43;2.70;;;16.50;46.70;17.00;101843.00;;;;5009638;28;20203;-43
2022/12/18 09:39:03;;;;;;;6.23;2.80;;;16.50;46.90;17.00;101840.00;;;;5009726;28;20291;-43
2022/12/18 09:41:47;;;;;;;2.83;2.63;;;16.50;47.00;17.00;101844.00;;;;5009289;28;20196;-42
2022/12/18 09:44:21;;;;;;;4.73;2.50;;;16.50;47.00;17.00;101832.00;;;;5017988;28;20691;-42
2022/12/18 09:46:52;;;;;;;3.97;2.70;;;16.60;47.00;17.00;101839.00;;;;5028168;28;20175;-42
2022/12/18 09:49:19;;;;;;;2.70;2.50;;;16.60;47.00;17.00;101834.00;;;;5028844;28;20181;-43
2022/12/18 09:52:01;;;;;;;2.93;2.60;;;16.60;47.00;17.00;101837.00;;;;5022489;28;20694;-43
2022/12/18 09:54:37;;;;;;;3.27;2.60;;;16.60;47.00;17.00;101826.00;;;;5014722;28;20171;-43
2022/12/18 09:57:03;;;;;;;2.90;2.60;;;16.60;47.10;17.00;101826.00;;;;4971123;28;20176;-43
2022/12/18 09:59:39;;;;;;;3.17;2.87;;;16.60;47.30;17.00;101833.00;;;;5011879;28;20546;-42
2022/12/18 10:02:25;;;;;;;3.13;2.83;;;16.50;47.40;17.00;101822.00;;;;5012271;28;20183;-43
2022/12/18 10:05:10;;;;;;;2.97;2.67;;;16.60;47.40;17.00;101824.00;;;;5010425;28;20219;-43
2022/12/18 10:08:09;;;;;;;2.60;2.40;;;16.60;47.30;17.00;101812.00;;;;5010722;28;20167;-42
2022/12/18 10:10:48;;;;;;;3.03;2.77;;;16.60;47.20;17.00;101814.00;;;;5009722;28;20218;-42
2022/12/18 10:13:38;;;;;;;4.57;2.70;;;16.60;47.40;17.00;101806.00;;;;5003390;28;20186;-42
2022/12/18 10:16:26;;;;;;;3.47;2.73;;;16.60;47.40;17.00;101795.00;;;;5020207;28;20184;-42
2022/12/18 10:19:13;;;;;;;2.90;2.70;;;16.50;47.30;17.00;101798.00;;;;4995613;28;20268;-42
2022/12/18 10:22:18;;;;;;;2.80;2.60;;;16.50;47.40;17.00;101797.00;;;;5010824;28;20202;-42
2022/12/18 10:25:28;;;;;;;2.67;2.47;;;16.50;47.40;17.00;101794.00;;;;5013105;28;20192;-42
2022/12/18 10:27:58;;;;;;;2.97;2.37;;;16.50;47.40;16.90;101789.00;;;;5011311;28;20172;-42
2022/12/18 10:30:24;;;;;;;2.93;2.63;;;16.50;47.40;17.00;101780.00;;;;5011955;28;20225;-44
2022/12/18 10:32:50;;;;;;;2.80;2.60;;;16.60;47.40;17.00;101782.00;;;;5012898;28;20644;-42
2022/12/18 10:35:25;;;;;;;2.80;2.60;;;16.50;47.30;17.00;101787.00;;;;5012677;28;20168;-43
2022/12/18 10:38:12;;;;;;;2.93;2.70;;;16.50;47.40;17.00;101789.00;;;;5012553;28;20187;-46
2022/12/18 10:41:13;;;;;;;2.80;2.60;;;16.60;47.50;17.00;101790.00;;;;5011839;28;20214;-43
2022/12/18 10:43:39;;;;;;;3.37;2.63;;;16.60;47.30;17.00;101772.00;;;;5001516;28;20196;-43
2022/12/18 10:46:08;;;;;;;3.10;2.80;;;16.70;47.50;17.00;101769.00;;;;4992975;28;20192;-44
2022/12/18 10:48:47;;;;;;;2.83;2.63;;;16.60;47.40;17.10;101766.00;;;;5011693;28;20668;-43
2022/12/18 10:51:27;;;;;;;2.70;2.50;;;16.60;47.80;17.10;101765.00;;;;5017520;28;20570;-44
2022/12/18 10:54:14;;;;;;;4.10;2.70;;;16.70;47.50;17.10;101765.00;;;;5026121;28;20183;-42
2022/12/18 10:56:40;;;;;;;3.80;2.70;;;16.70;47.50;17.10;101758.00;;;;4957621;28;20301;-42
2022/12/18 10:59:08;;;;;;;2.80;2.60;;;16.70;47.50;17.10;101759.00;;;;5009230;28;20350;-47
2022/12/18 11:01:55;;;;;;;3.50;2.90;;;16.60;47.80;17.10;101677.00;;;;5011392;28;20179;-43
2022/12/18 11:04:29;;;;;;;4.60;3.60;;;16.70;48.60;17.10;101748.00;;;;5011439;28;20196;-43
2022/12/18 11:07:06;;;;;;;6.53;4.10;;;16.70;49.40;17.10;101756.00;;;;5010297;28;20684;-42